Time;durP1;ratioP1;P1;durP2;ratioP2;P2;SDS_P1;SDS_P2;PMS_P1;PMS_P2;Temp;Humidity;BMP_temperature;BMP_pressure;BME280_temperature;BME280_humidity;BME280_pressure;Samples;Min_cycle;Max_cycle;Signal;HPM_P1;HPM_P2
2021/07/07 00:00:21;;;;;;;11.35;3.10;;;;;;;;;;4905003;28;20087;-63
2021/07/07 00:02:50;;;;;;;4.20;2.47;;;;;;;;;;4890698;28;20650;-61
2021/07/07 00:05:17;;;;;;;12.45;2.65;;;;;;;;;;4905532;28;20036;-61
2021/07/07 00:07:46;;;;;;;8.82;2.85;;;;;;;;;;4891953;28;20566;-62
2021/07/07 00:10:13;;;;;;;6.50;2.63;;;;;;;;;;4888751;28;20040;-61
2021/07/07 00:12:41;;;;;;;9.77;2.60;;;;;;;;;;4890475;28;20098;-62
2021/07/07 00:15:11;;;;;;;3.50;2.05;;;;;;;;;;4892821;28;20595;-61
2021/07/07 00:17:39;;;;;;;5.47;2.45;;;;;;;;;;4896675;28;20036;-61
2021/07/07 00:20:09;;;;;;;6.97;2.03;;;;;;;;;;4893534;28;20024;-62
2021/07/07 00:22:37;;;;;;;10.20;2.42;;;;;;;;;;4895237;28;20106;-61
2021/07/07 00:25:05;;;;;;;8.52;2.63;;;;;;;;;;4894212;28;20228;-62
2021/07/07 00:27:32;;;;;;;8.63;2.28;;;;;;;;;;4893276;28;20033;-62
2021/07/07 00:29:58;;;;;;;7.78;2.53;;;;;;;;;;4890869;28;20786;-60
2021/07/07 00:32:28;;;;;;;8.75;2.28;;;;;;;;;;4894777;28;20050;-61
2021/07/07 00:34:55;;;;;;;13.82;2.80;;;;;;;;;;4894225;28;20102;-61
2021/07/07 00:37:21;;;;;;;11.35;2.38;;;;;;;;;;4893637;28;20040;-62
2021/07/07 00:39:46;;;;;;;8.75;2.63;;;;;;;;;;4892906;28;20089;-62
2021/07/07 00:42:17;;;;;;;10.30;2.95;;;;;;;;;;4892970;28;20164;-61
2021/07/07 00:44:45;;;;;;;6.20;3.45;;;;;;;;;;4908321;28;20039;-61
2021/07/07 00:47:10;;;;;;;5.10;2.67;;;;;;;;;;4891562;28;20186;-59
2021/07/07 00:49:35;;;;;;;17.27;3.50;;;;;;;;;;4907376;28;20044;-61
2021/07/07 00:52:04;;;;;;;5.20;2.75;;;;;;;;;;4894232;28;20040;-62
2021/07/07 00:54:35;;;;;;;16.30;2.92;;;;;;;;;;4893140;28;20040;-61
2021/07/07 00:57:06;;;;;;;12.55;2.63;;;;;;;;;;4893442;28;20033;-61
2021/07/07 00:59:32;;;;;;;16.67;2.92;;;;;;;;;;4893185;28;20155;-60
2021/07/07 01:01:59;;;;;;;8.30;2.33;;;;;;;;;;4908458;28;20391;-60
2021/07/07 01:04:24;;;;;;;3.97;2.58;;;;;;;;;;4890841;28;21521;-61
2021/07/07 01:06:55;;;;;;;8.52;2.88;;;;;;;;;;4892871;28;20086;-61
2021/07/07 01:09:21;;;;;;;9.60;2.83;;;;;;;;;;4894572;28;20795;-61
2021/07/07 01:11:49;;;;;;;7.35;2.47;;;;;;;;;;4893114;28;20708;-61
2021/07/07 01:14:20;;;;;;;8.80;2.13;;;;;;;;;;4892944;28;20094;-61
2021/07/07 01:16:49;;;;;;;7.43;2.17;;;;;;;;;;4891138;28;20556;-62
2021/07/07 01:19:17;;;;;;;7.45;2.40;;;;;;;;;;4891318;28;20036;-62
2021/07/07 01:21:51;;;;;;;6.93;2.60;;;;;;;;;;4891526;28;20044;-63
2021/07/07 01:24:19;;;;;;;8.43;2.20;;;;;;;;;;4889786;28;20033;-62
2021/07/07 01:26:48;;;;;;;3.75;2.88;;;;;;;;;;4891378;28;20969;-63
2021/07/07 01:29:17;;;;;;;7.75;2.65;;;;;;;;;;4887662;28;20051;-60
2021/07/07 01:31:45;;;;;;;13.18;2.90;;;;;;;;;;4884702;28;20050;-62
2021/07/07 01:34:15;;;;;;;11.60;2.78;;;;;;;;;;4885796;28;20028;-61
2021/07/07 01:36:41;;;;;;;6.95;2.45;;;;;;;;;;4892097;28;20503;-60
2021/07/07 01:39:11;;;;;;;9.30;2.72;;;;;;;;;;4891533;28;20123;-61
2021/07/07 01:41:39;;;;;;;9.55;2.80;;;;;;;;;;4891760;28;20036;-60
2021/07/07 01:44:09;;;;;;;8.07;3.20;;;;;;;;;;4890638;28;20083;-61
2021/07/07 01:46:34;;;;;;;11.00;2.67;;;;;;;;;;4893280;28;20660;-61
2021/07/07 01:49:02;;;;;;;6.28;2.85;;;;;;;;;;4888926;28;20027;-62
2021/07/07 01:51:30;;;;;;;6.35;3.22;;;;;;;;;;4908459;28;20218;-61
2021/07/07 01:53:55;;;;;;;9.65;3.22;;;;;;;;;;4877293;28;20040;-61
2021/07/07 01:56:23;;;;;;;10.85;3.10;;;;;;;;;;4891915;28;20031;-61
2021/07/07 01:58:51;;;;;;;9.02;2.90;;;;;;;;;;4887199;28;21956;-61
2021/07/07 02:01:19;;;;;;;10.23;2.90;;;;;;;;;;4892621;28;20053;-62
2021/07/07 02:03:45;;;;;;;10.20;3.45;;;;;;;;;;4890732;28;20502;-62
2021/07/07 02:06:10;;;;;;;10.73;3.60;;;;;;;;;;4889468;28;20040;-62
2021/07/07 02:08:37;;;;;;;7.97;2.83;;;;;;;;;;4890317;28;20035;-61
2021/07/07 02:11:06;;;;;;;14.00;2.90;;;;;;;;;;4905671;28;20036;-61
2021/07/07 02:17:12;;;;;;;7.75;3.67;;;;;;;;;;4890561;28;20071;-62
2021/07/07 02:19:40;;;;;;;7.85;3.22;;;;;;;;;;4891440;28;20029;-62
2021/07/07 02:22:05;;;;;;;10.23;3.10;;;;;;;;;;4889412;28;20481;-61
2021/07/07 02:24:33;;;;;;;13.25;3.63;;;;;;;;;;4904539;28;20123;-61
2021/07/07 02:30:12;;;;;;;22.75;4.07;;;;;;;;;;4892566;28;20143;-62
2021/07/07 02:32:40;;;;;;;11.57;2.90;;;;;;;;;;4891897;28;20100;-61
2021/07/07 02:35:10;;;;;;;8.98;3.13;;;;;;;;;;4902179;28;20040;-62
2021/07/07 02:37:39;;;;;;;8.15;3.38;;;;;;;;;;4902318;28;20028;-62
2021/07/07 02:40:07;;;;;;;7.38;3.22;;;;;;;;;;4888826;28;20166;-61
2021/07/07 02:46:13;;;;;;;4.15;2.65;;;;;;;;;;4890104;28;20435;-62
2021/07/07 02:48:44;;;;;;;6.13;3.13;;;;;;;;;;4904006;28;20496;-62
2021/07/07 02:51:09;;;;;;;10.00;3.20;;;;;;;;;;4893705;28;20029;-62
2021/07/07 02:53:35;;;;;;;15.27;3.17;;;;;;;;;;4890053;28;20036;-61
2021/07/07 02:56:06;;;;;;;9.95;3.03;;;;;;;;;;4892581;28;20028;-62
2021/07/07 02:58:38;;;;;;;9.07;3.33;;;;;;;;;;4904141;28;20823;-62
2021/07/07 03:01:03;;;;;;;10.88;3.05;;;;;;;;;;4890519;28;20064;-62
2021/07/07 03:03:29;;;;;;;9.50;3.40;;;;;;;;;;4888872;28;22155;-62
2021/07/07 03:05:58;;;;;;;7.30;3.60;;;;;;;;;;4892984;28;20158;-61
2021/07/07 03:08:30;;;;;;;8.43;3.88;;;;;;;;;;4889507;28;20040;-61
2021/07/07 03:10:59;;;;;;;14.82;3.20;;;;;;;;;;4889897;28;20055;-62
2021/07/07 03:13:28;;;;;;;6.65;3.13;;;;;;;;;;4890223;28;20028;-61
2021/07/07 03:15:58;;;;;;;13.13;2.83;;;;;;;;;;4891430;28;20446;-62
2021/07/07 03:18:27;;;;;;;9.48;3.15;;;;;;;;;;4888028;28;20036;-62
2021/07/07 03:20:55;;;;;;;6.30;3.42;;;;;;;;;;4891945;28;20036;-62
2021/07/07 03:23:22;;;;;;;9.15;3.40;;;;;;;;;;4891416;28;20040;-61
2021/07/07 03:25:50;;;;;;;5.85;3.25;;;;;;;;;;4905200;28;20689;-63
2021/07/07 03:28:18;;;;;;;7.43;2.60;;;;;;;;;;4892226;28;20084;-61
2021/07/07 03:30:46;;;;;;;11.32;3.13;;;;;;;;;;4890370;28;20036;-62
2021/07/07 03:33:14;;;;;;;9.60;3.80;;;;;;;;;;4891840;28;21072;-61
2021/07/07 03:35:40;;;;;;;14.52;3.55;;;;;;;;;;4905592;28;20035;-61
2021/07/07 03:38:06;;;;;;;8.13;3.20;;;;;;;;;;4887985;28;20036;-62
2021/07/07 03:40:36;;;;;;;6.78;2.90;;;;;;;;;;4892591;28;20032;-62
2021/07/07 03:43:01;;;;;;;8.70;3.13;;;;;;;;;;4885869;28;20070;-63
2021/07/07 03:45:29;;;;;;;8.25;3.42;;;;;;;;;;4874062;28;20053;-61
2021/07/07 03:47:55;;;;;;;6.72;3.22;;;;;;;;;;4906149;28;20055;-61
2021/07/07 03:50:21;;;;;;;14.45;3.22;;;;;;;;;;4892333;28;20036;-62
2021/07/07 03:52:47;;;;;;;7.65;3.17;;;;;;;;;;4894340;28;20143;-62
2021/07/07 03:55:16;;;;;;;5.43;3.00;;;;;;;;;;4894384;28;20941;-61
2021/07/07 03:57:45;;;;;;;8.00;2.92;;;;;;;;;;4903998;28;20032;-61
2021/07/07 04:00:16;;;;;;;5.90;3.40;;;;;;;;;;4892336;28;20061;-61
2021/07/07 04:02:42;;;;;;;5.32;3.30;;;;;;;;;;4893675;28;20581;-62
2021/07/07 04:05:11;;;;;;;11.98;3.13;;;;;;;;;;4894495;28;20033;-63
2021/07/07 04:07:37;;;;;;;7.63;3.22;;;;;;;;;;4907804;28;20032;-62
2021/07/07 04:10:09;;;;;;;12.82;2.78;;;;;;;;;;4893543;28;20106;-62
2021/07/07 04:12:40;;;;;;;8.40;2.90;;;;;;;;;;4876132;28;20044;-62
2021/07/07 04:15:06;;;;;;;11.63;2.60;;;;;;;;;;4893325;28;20044;-61
2021/07/07 04:17:35;;;;;;;5.93;2.75;;;;;;;;;;4894689;28;20115;-62
2021/07/07 04:20:01;;;;;;;7.10;2.80;;;;;;;;;;4892964;28;20102;-62
2021/07/07 04:22:26;;;;;;;6.25;2.75;;;;;;;;;;4892878;28;20040;-61
2021/07/07 04:24:55;;;;;;;4.88;2.58;;;;;;;;;;4893988;28;20079;-61
2021/07/07 04:27:20;;;;;;;5.80;2.38;;;;;;;;;;4894151;28;20130;-62
2021/07/07 04:29:48;;;;;;;6.28;2.30;;;;;;;;;;4894384;28;20028;-62
2021/07/07 04:32:16;;;;;;;6.07;2.10;;;;;;;;;;4892460;28;20036;-62
2021/07/07 04:34:42;;;;;;;7.95;2.55;;;;;;;;;;4893229;28;20043;-63
2021/07/07 04:37:13;;;;;;;4.20;1.77;;;;;;;;;;4907016;28;20067;-62
2021/07/07 04:39:39;;;;;;;9.90;1.80;;;;;;;;;;4894470;28;20024;-62
2021/07/07 04:42:04;;;;;;;2.55;1.63;;;;;;;;;;4890912;28;20050;-62
2021/07/07 04:44:32;;;;;;;10.00;2.10;;;;;;;;;;4877244;28;20050;-63
2021/07/07 04:46:57;;;;;;;4.95;2.08;;;;;;;;;;4905818;28;20064;-63
2021/07/07 04:49:23;;;;;;;4.03;1.73;;;;;;;;;;4892707;28;20036;-63
2021/07/07 04:51:48;;;;;;;9.75;1.80;;;;;;;;;;4907171;28;20933;-62
2021/07/07 04:54:16;;;;;;;4.88;2.30;;;;;;;;;;4906037;28;20135;-62
2021/07/07 04:56:44;;;;;;;7.88;1.85;;;;;;;;;;4893935;28;20045;-63
2021/07/07 04:59:12;;;;;;;5.65;2.10;;;;;;;;;;4902367;28;20431;-62
2021/07/07 05:01:42;;;;;;;7.15;2.42;;;;;;;;;;4876768;28;20029;-63
2021/07/07 05:04:12;;;;;;;6.57;1.65;;;;;;;;;;4905344;28;22131;-63
2021/07/07 05:06:43;;;;;;;3.88;1.90;;;;;;;;;;4907138;28;20040;-63
2021/07/07 05:09:15;;;;;;;6.43;1.55;;;;;;;;;;4892404;28;20040;-62
2021/07/07 05:11:43;;;;;;;3.65;1.80;;;;;;;;;;4893512;28;20024;-62
2021/07/07 05:14:15;;;;;;;5.38;2.22;;;;;;;;;;4892351;28;21100;-62
2021/07/07 05:16:42;;;;;;;2.15;1.80;;;;;;;;;;4892978;28;20484;-62
2021/07/07 05:19:13;;;;;;;4.10;1.73;;;;;;;;;;4888758;28;20043;-63
2021/07/07 05:21:42;;;;;;;5.32;1.83;;;;;;;;;;4893203;28;20537;-62
2021/07/07 05:24:12;;;;;;;4.65;1.98;;;;;;;;;;4890565;28;20040;-62
2021/07/07 05:26:40;;;;;;;3.60;1.60;;;;;;;;;;4890237;28;20044;-63
2021/07/07 05:29:06;;;;;;;6.05;1.90;;;;;;;;;;4891033;28;20039;-63
2021/07/07 05:31:34;;;;;;;6.07;1.77;;;;;;;;;;4878301;28;20145;-62
2021/07/07 05:34:06;;;;;;;4.32;1.50;;;;;;;;;;4904200;28;20496;-62
2021/07/07 05:36:35;;;;;;;5.15;1.95;;;;;;;;;;4890849;28;20028;-62
2021/07/07 05:39:01;;;;;;;3.90;1.73;;;;;;;;;;4891951;28;20132;-62
2021/07/07 05:41:27;;;;;;;5.15;1.63;;;;;;;;;;4873958;28;20048;-62
2021/07/07 05:43:54;;;;;;;3.63;1.52;;;;;;;;;;4891159;28;20033;-61
2021/07/07 05:46:20;;;;;;;4.90;1.88;;;;;;;;;;4887875;28;20078;-61
2021/07/07 05:48:48;;;;;;;5.05;1.55;;;;;;;;;;4906401;28;20743;-61
2021/07/07 05:51:18;;;;;;;4.75;1.40;;;;;;;;;;4891555;28;20090;-61
2021/07/07 05:53:44;;;;;;;4.43;1.42;;;;;;;;;;4901566;28;20554;-63
2021/07/07 05:56:14;;;;;;;4.95;1.42;;;;;;;;;;4874267;28;20024;-63
2021/07/07 05:58:40;;;;;;;1.90;1.33;;;;;;;;;;4890907;28;20052;-63
2021/07/07 06:01:07;;;;;;;3.03;1.45;;;;;;;;;;4891591;28;20036;-62
2021/07/07 06:03:35;;;;;;;2.05;1.33;;;;;;;;;;4885345;28;20043;-62
2021/07/07 06:06:03;;;;;;;3.15;1.33;;;;;;;;;;4873529;28;20048;-62
2021/07/07 06:08:31;;;;;;;11.88;1.55;;;;;;;;;;4888967;28;20455;-62
2021/07/07 06:10:56;;;;;;;11.48;1.50;;;;;;;;;;4898152;28;20428;-62
2021/07/07 06:13:24;;;;;;;6.78;1.40;;;;;;;;;;4890394;28;20024;-62
2021/07/07 06:15:54;;;;;;;2.08;1.20;;;;;;;;;;4874184;28;20047;-62
2021/07/07 06:18:22;;;;;;;4.40;1.65;;;;;;;;;;4890463;28;20043;-62
2021/07/07 06:20:55;;;;;;;2.63;1.23;;;;;;;;;;4874071;28;20032;-62
2021/07/07 06:23:23;;;;;;;3.55;1.45;;;;;;;;;;4868901;28;20036;-63
2021/07/07 06:25:49;;;;;;;2.33;1.00;;;;;;;;;;4890459;28;20044;-63
2021/07/07 06:28:17;;;;;;;6.57;1.20;;;;;;;;;;4891470;28;20090;-62
2021/07/07 06:30:44;;;;;;;6.68;1.10;;;;;;;;;;4890242;28;20623;-62
2021/07/07 06:33:11;;;;;;;2.63;1.13;;;;;;;;;;4888390;28;20126;-61
2021/07/07 06:35:41;;;;;;;1.60;1.00;;;;;;;;;;4890417;28;20032;-61
2021/07/07 06:38:06;;;;;;;5.38;1.40;;;;;;;;;;4891459;28;20032;-63
2021/07/07 06:40:35;;;;;;;6.57;0.93;;;;;;;;;;4872368;28;20046;-63
2021/07/07 06:43:00;;;;;;;6.25;1.58;;;;;;;;;;4891162;28;20070;-64
2021/07/07 06:45:30;;;;;;;6.35;0.90;;;;;;;;;;4889172;28;20598;-61
2021/07/07 06:47:55;;;;;;;3.35;0.95;;;;;;;;;;4889657;28;20102;-62
2021/07/07 06:50:21;;;;;;;10.48;1.55;;;;;;;;;;4891608;28;21760;-62
2021/07/07 06:52:50;;;;;;;3.53;0.80;;;;;;;;;;4889580;28;20300;-63
2021/07/07 06:55:18;;;;;;;3.15;0.95;;;;;;;;;;4889344;28;20028;-63
2021/07/07 06:57:47;;;;;;;6.00;1.10;;;;;;;;;;4891324;28;20017;-62
2021/07/07 07:00:14;;;;;;;1.67;0.73;;;;;;;;;;4889344;28;20518;-65
2021/07/07 07:02:42;;;;;;;1.52;0.63;;;;;;;;;;4892510;28;20808;-62
2021/07/07 07:05:11;;;;;;;2.92;0.65;;;;;;;;;;4905227;28;20040;-62
2021/07/07 07:07:40;;;;;;;2.15;0.90;;;;;;;;;;4891137;28;20044;-63
2021/07/07 07:10:06;;;;;;;2.03;0.80;;;;;;;;;;4890873;28;20032;-62
2021/07/07 07:12:37;;;;;;;3.40;1.10;;;;;;;;;;4889476;28;20035;-63
2021/07/07 07:15:07;;;;;;;0.70;0.60;;;;;;;;;;4904890;28;20052;-62
2021/07/07 07:17:35;;;;;;;1.23;0.70;;;;;;;;;;4904179;28;20036;-62
2021/07/07 07:20:02;;;;;;;4.43;0.75;;;;;;;;;;4889487;28;20036;-62
2021/07/07 07:22:30;;;;;;;2.47;0.73;;;;;;;;;;4887881;28;20111;-62
2021/07/07 07:24:58;;;;;;;5.53;0.90;;;;;;;;;;4874205;28;20078;-62
2021/07/07 07:27:26;;;;;;;3.40;0.70;;;;;;;;;;4889729;28;20400;-62
2021/07/07 07:29:54;;;;;;;1.50;0.73;;;;;;;;;;4890070;28;20039;-66
2021/07/07 07:32:20;;;;;;;2.30;0.80;;;;;;;;;;4872400;28;20044;-63
2021/07/07 07:34:45;;;;;;;8.25;1.10;;;;;;;;;;4886657;28;20118;-61
2021/07/07 07:37:14;;;;;;;2.05;0.70;;;;;;;;;;4888114;28;20555;-61
2021/07/07 07:40:00;;;;;;;3.28;1.10;;;;;;;;;;4903358;28;20036;-62
2021/07/07 07:42:27;;;;;;;3.55;0.95;;;;;;;;;;4890144;28;20045;-62
2021/07/07 07:44:55;;;;;;;2.85;1.25;;;;;;;;;;4902821;28;20035;-62
2021/07/07 07:47:23;;;;;;;5.45;1.10;;;;;;;;;;4889749;28;20151;-62
2021/07/07 07:49:48;;;;;;;4.35;1.05;;;;;;;;;;4889471;28;20043;-62
2021/07/07 07:52:18;;;;;;;6.10;1.10;;;;;;;;;;4889974;28;20040;-62
2021/07/07 07:54:43;;;;;;;2.85;1.08;;;;;;;;;;4889330;28;20392;-64
2021/07/07 07:57:11;;;;;;;2.90;1.02;;;;;;;;;;4903805;28;20035;-62
2021/07/07 07:59:37;;;;;;;5.68;0.95;;;;;;;;;;4887999;28;20036;-62
2021/07/07 08:02:02;;;;;;;4.05;1.10;;;;;;;;;;4900314;28;22170;-62
2021/07/07 08:04:28;;;;;;;4.60;1.38;;;;;;;;;;4904223;28;20034;-62
2021/07/07 08:07:00;;;;;;;7.13;1.48;;;;;;;;;;4888163;28;20036;-61
2021/07/07 08:09:26;;;;;;;3.40;1.42;;;;;;;;;;4889919;28;20127;-62
2021/07/07 08:11:51;;;;;;;2.92;1.10;;;;;;;;;;4889954;28;20156;-61
2021/07/07 08:14:17;;;;;;;7.22;1.10;;;;;;;;;;4888493;28;20085;-63
2021/07/07 08:16:43;;;;;;;3.13;1.08;;;;;;;;;;4887887;28;20132;-64
2021/07/07 08:19:08;;;;;;;4.70;0.95;;;;;;;;;;4902199;28;20044;-62
2021/07/07 08:21:34;;;;;;;2.78;1.05;;;;;;;;;;4889670;28;20032;-62
2021/07/07 08:24:03;;;;;;;3.75;1.13;;;;;;;;;;4888827;28;20136;-62
2021/07/07 08:26:31;;;;;;;3.08;0.82;;;;;;;;;;4874984;28;20036;-62
2021/07/07 08:28:58;;;;;;;2.28;0.95;;;;;;;;;;4887751;28;20028;-62
2021/07/07 08:31:31;;;;;;;2.05;0.85;;;;;;;;;;4890768;28;20119;-63
2021/07/07 08:33:59;;;;;;;3.58;0.73;;;;;;;;;;4893508;28;20044;-62
2021/07/07 08:36:28;;;;;;;5.53;1.17;;;;;;;;;;4892101;28;20036;-63
2021/07/07 08:38:59;;;;;;;1.73;0.63;;;;;;;;;;4907228;28;20922;-61
2021/07/07 08:41:25;;;;;;;6.72;1.08;;;;;;;;;;4872870;28;20027;-60
2021/07/07 08:43:53;;;;;;;3.83;1.00;;;;;;;;;;4893963;28;20078;-61
2021/07/07 08:46:23;;;;;;;6.53;1.02;;;;;;;;;;4892474;28;20056;-62
2021/07/07 08:48:48;;;;;;;6.57;0.98;;;;;;;;;;4888588;28;20795;-62
2021/07/07 08:51:14;;;;;;;3.88;0.82;;;;;;;;;;4891692;28;20044;-61
2021/07/07 08:53:41;;;;;;;3.38;0.85;;;;;;;;;;4892653;28;20029;-61
2021/07/07 08:56:13;;;;;;;5.22;1.00;;;;;;;;;;4892136;28;20040;-62
2021/07/07 08:58:41;;;;;;;5.35;1.17;;;;;;;;;;4891490;28;20181;-62
2021/07/07 09:01:07;;;;;;;2.40;0.85;;;;;;;;;;4891605;28;20455;-62
2021/07/07 09:03:37;;;;;;;2.15;0.60;;;;;;;;;;4890607;28;20032;-62
2021/07/07 09:06:05;;;;;;;4.47;0.88;;;;;;;;;;4892251;28;20086;-62
2021/07/07 09:08:31;;;;;;;3.55;1.23;;;;;;;;;;4889934;28;20036;-60
2021/07/07 09:11:16;;;;;;;3.03;0.90;;;;;;;;;;4893576;28;20032;-61
2021/07/07 09:13:42;;;;;;;3.40;0.90;;;;;;;;;;4894050;28;20059;-60
2021/07/07 09:16:13;;;;;;;3.45;0.80;;;;;;;;;;4890670;28;20032;-61
2021/07/07 09:18:39;;;;;;;3.58;0.88;;;;;;;;;;4906658;28;20082;-60
2021/07/07 09:21:22;;;;;;;1.58;0.50;;;;;;;;;;4878278;28;20119;-61
2021/07/07 09:23:48;;;;;;;3.33;0.73;;;;;;;;;;4892128;28;20159;-61
2021/07/07 09:26:24;;;;;;;6.10;1.00;;;;;;;;;;4892892;28;20032;-61
2021/07/07 09:28:55;;;;;;;3.85;0.70;;;;;;;;;;4905209;28;20630;-61
2021/07/07 09:31:41;;;;;;;1.98;0.82;;;;;;;;;;4891318;28;20598;-61
2021/07/07 09:34:17;;;;;;;5.25;1.10;;;;;;;;;;4892622;28;20687;-60
2021/07/07 09:36:45;;;;;;;6.47;0.80;;;;;;;;;;4891764;28;20051;-62
2021/07/07 09:39:13;;;;;;;2.28;0.80;;;;;;;;;;4887671;28;20031;-60
2021/07/07 09:41:42;;;;;;;2.17;0.77;;;;;;;;;;4907090;28;20515;-60
2021/07/07 09:44:10;;;;;;;5.25;0.77;;;;;;;;;;4892024;28;20035;-60
2021/07/07 09:46:38;;;;;;;2.58;0.70;;;;;;;;;;4905479;28;20138;-61
2021/07/07 09:49:04;;;;;;;3.58;0.85;;;;;;;;;;4892643;28;20046;-61
2021/07/07 09:51:33;;;;;;;2.35;0.68;;;;;;;;;;4889753;28;20040;-60
2021/07/07 09:54:05;;;;;;;3.50;0.80;;;;;;;;;;4889694;28;21050;-60
2021/07/07 09:56:32;;;;;;;4.72;1.08;;;;;;;;;;4904651;28;20093;-60
2021/07/07 09:59:02;;;;;;;5.78;0.75;;;;;;;;;;4892511;28;22074;-60
2021/07/07 10:01:28;;;;;;;2.92;0.60;;;;;;;;;;4886861;28;20033;-60
2021/07/07 10:03:55;;;;;;;2.63;0.63;;;;;;;;;;4890066;28;20525;-60
2021/07/07 10:06:21;;;;;;;4.15;0.90;;;;;;;;;;4888359;28;20036;-59
2021/07/07 10:08:49;;;;;;;2.08;0.75;;;;;;;;;;4890931;28;20055;-60
2021/07/07 10:11:18;;;;;;;2.17;0.63;;;;;;;;;;4892232;28;20032;-60
2021/07/07 10:13:44;;;;;;;1.83;0.70;;;;;;;;;;4891955;28;20112;-62
2021/07/07 10:16:10;;;;;;;2.45;0.85;;;;;;;;;;4892450;28;20048;-60
2021/07/07 10:18:36;;;;;;;3.40;1.00;;;;;;;;;;4874300;28;20058;-60
2021/07/07 10:21:09;;;;;;;3.35;0.75;;;;;;;;;;4890734;28;20032;-60
2021/07/07 10:23:39;;;;;;;4.30;1.27;;;;;;;;;;4905068;28;20715;-60
2021/07/07 10:26:05;;;;;;;3.72;0.88;;;;;;;;;;4890766;28;20477;-61
2021/07/07 10:28:31;;;;;;;4.13;1.17;;;;;;;;;;4905031;28;20052;-59
2021/07/07 10:31:00;;;;;;;10.70;0.82;;;;;;;;;;4905706;28;20146;-60
2021/07/07 10:33:28;;;;;;;1.45;0.68;;;;;;;;;;4904312;28;20073;-61
2021/07/07 10:36:21;;;;;;;2.13;0.70;;;;;;;;;;4905307;28;20472;-61
2021/07/07 10:38:50;;;;;;;2.10;0.82;;;;;;;;;;4887077;28;20056;-61
2021/07/07 10:41:18;;;;;;;5.07;0.80;;;;;;;;;;4872367;28;20028;-60
2021/07/07 10:43:47;;;;;;;3.88;0.70;;;;;;;;;;4890877;28;20025;-61
2021/07/07 10:46:13;;;;;;;2.65;0.80;;;;;;;;;;4892627;28;20072;-60
2021/07/07 10:48:40;;;;;;;3.03;1.05;;;;;;;;;;4890315;28;20047;-60
2021/07/07 10:51:12;;;;;;;7.07;1.10;;;;;;;;;;4887854;28;20036;-60
2021/07/07 10:53:37;;;;;;;3.95;0.90;;;;;;;;;;4888656;28;20039;-60
2021/07/07 10:56:05;;;;;;;4.90;0.82;;;;;;;;;;4869374;28;20040;-61
2021/07/07 10:58:38;;;;;;;7.35;1.30;;;;;;;;;;4877985;28;20774;-59
2021/07/07 11:01:24;;;;;;;3.40;1.00;;;;;;;;;;4889561;28;21016;-61
2021/07/07 11:04:00;;;;;;;5.20;0.90;;;;;;;;;;4890769;28;20093;-60
2021/07/07 11:06:30;;;;;;;8.15;1.58;;;;;;;;;;4890185;28;20040;-61
2021/07/07 11:09:13;;;;;;;4.68;0.90;;;;;;;;;;4890162;28;20114;-60
2021/07/07 11:11:40;;;;;;;4.05;1.30;;;;;;;;;;4888661;28;20036;-60
2021/07/07 11:14:10;;;;;;;3.63;0.80;;;;;;;;;;4905489;28;20468;-62
2021/07/07 11:16:43;;;;;;;13.80;2.10;;;;;;;;;;4905100;28;20351;-60
2021/07/07 11:19:32;;;;;;;7.45;1.20;;;;;;;;;;4891735;28;20036;-61
2021/07/07 11:22:01;;;;;;;3.67;0.70;;;;;;;;;;4905484;28;20043;-60
2021/07/07 11:24:29;;;;;;;3.38;0.77;;;;;;;;;;4904116;28;20028;-62
2021/07/07 11:27:00;;;;;;;3.65;0.70;;;;;;;;;;4889505;28;20071;-61
2021/07/07 11:29:25;;;;;;;3.20;0.88;;;;;;;;;;4872354;28;20636;-61
2021/07/07 11:31:52;;;;;;;1.23;0.68;;;;;;;;;;4904652;28;20040;-61
2021/07/07 11:34:17;;;;;;;2.63;1.00;;;;;;;;;;4904962;28;20040;-62
2021/07/07 11:36:43;;;;;;;4.47;1.10;;;;;;;;;;4890692;28;20051;-64
2021/07/07 11:39:20;;;;;;;4.88;0.98;;;;;;;;;;4894604;28;20045;-62
2021/07/07 11:42:02;;;;;;;3.15;0.75;;;;;;;;;;4893394;28;20036;-62
2021/07/07 11:44:38;;;;;;;2.55;1.02;;;;;;;;;;4887621;28;20025;-62
2021/07/07 11:47:03;;;;;;;2.78;0.93;;;;;;;;;;4892851;28;20713;-62
2021/07/07 11:49:29;;;;;;;4.97;0.80;;;;;;;;;;4876495;28;20024;-62
2021/07/07 11:52:06;;;;;;;3.33;0.80;;;;;;;;;;4884306;28;20071;-62
2021/07/07 11:54:49;;;;;;;2.15;0.73;;;;;;;;;;4889639;28;20149;-61
2021/07/07 11:57:17;;;;;;;3.20;0.90;;;;;;;;;;4889358;28;20144;-61
2021/07/07 11:59:50;;;;;;;1.55;0.82;;;;;;;;;;4889983;28;20089;-62
2021/07/07 12:02:18;;;;;;;8.63;1.30;;;;;;;;;;4890013;28;20115;-62
2021/07/07 12:04:47;;;;;;;3.45;1.10;;;;;;;;;;4900248;28;20040;-63
2021/07/07 12:07:14;;;;;;;4.25;1.10;;;;;;;;;;4888420;28;20071;-62
2021/07/07 12:09:42;;;;;;;2.47;0.98;;;;;;;;;;4889172;28;20086;-63
2021/07/07 12:12:11;;;;;;;3.20;0.85;;;;;;;;;;4892843;28;20051;-62
2021/07/07 12:14:38;;;;;;;5.72;1.30;;;;;;;;;;4907642;28;20032;-63
2021/07/07 12:17:04;;;;;;;3.33;1.10;;;;;;;;;;4892907;28;20032;-62
2021/07/07 12:19:35;;;;;;;6.15;1.13;;;;;;;;;;4896073;28;20043;-62
2021/07/07 12:22:06;;;;;;;8.20;1.42;;;;;;;;;;4893792;28;20480;-62
2021/07/07 12:24:32;;;;;;;2.33;1.17;;;;;;;;;;4891793;28;20036;-62
2021/07/07 12:27:01;;;;;;;6.60;1.40;;;;;;;;;;4904291;28;20032;-61
2021/07/07 12:29:26;;;;;;;5.05;1.70;;;;;;;;;;4893478;28;20974;-62
2021/07/07 12:32:05;;;;;;;6.60;1.30;;;;;;;;;;4893958;28;20504;-63
2021/07/07 12:34:32;;;;;;;4.10;1.52;;;;;;;;;;4893296;28;20028;-65
2021/07/07 12:36:59;;;;;;;4.45;1.50;;;;;;;;;;4892460;28;20033;-62
2021/07/07 12:39:29;;;;;;;4.40;2.10;;;;;;;;;;4892160;28;20032;-62
2021/07/07 12:41:56;;;;;;;8.93;3.00;;;;;;;;;;4894276;28;20677;-64
2021/07/07 12:44:23;;;;;;;5.20;2.25;;;;;;;;;;4905417;28;20035;-63
2021/07/07 12:46:59;;;;;;;5.85;2.60;;;;;;;;;;4891403;28;20074;-64
2021/07/07 12:49:35;;;;;;;7.65;2.45;;;;;;;;;;4890461;28;20067;-63
2021/07/07 12:52:14;;;;;;;7.35;2.65;;;;;;;;;;4893568;28;20045;-64
2021/07/07 12:54:40;;;;;;;7.25;2.50;;;;;;;;;;4891210;28;20040;-63
2021/07/07 12:57:06;;;;;;;5.03;1.98;;;;;;;;;;4893364;28;20090;-67
2021/07/07 12:59:34;;;;;;;8.32;1.80;;;;;;;;;;4873760;28;20641;-63
2021/07/07 13:02:07;;;;;;;6.65;1.73;;;;;;;;;;4893550;28;20044;-66
2021/07/07 13:04:35;;;;;;;5.60;1.60;;;;;;;;;;4892553;28;20024;-64
2021/07/07 13:07:04;;;;;;;2.80;1.73;;;;;;;;;;4891084;28;20036;-63
2021/07/07 13:09:32;;;;;;;4.10;1.38;;;;;;;;;;4888743;28;20221;-65
2021/07/07 13:12:02;;;;;;;1.88;0.90;;;;;;;;;;4890947;28;20044;-64
2021/07/07 13:14:32;;;;;;;1.25;0.80;;;;;;;;;;4892507;28;22300;-68
2021/07/07 13:17:02;;;;;;;1.73;0.70;;;;;;;;;;4894341;28;20728;-66
2021/07/07 13:19:37;;;;;;;5.30;1.08;;;;;;;;;;4889968;28;20392;-66
2021/07/07 13:22:14;;;;;;;4.40;0.98;;;;;;;;;;4890643;28;20041;-66
2021/07/07 13:24:47;;;;;;;1.60;0.70;;;;;;;;;;4891860;28;20036;-66
2021/07/07 13:27:19;;;;;;;3.55;0.80;;;;;;;;;;4875466;28;20043;-65
2021/07/07 13:29:48;;;;;;;4.07;0.98;;;;;;;;;;4890737;28;20043;-66
2021/07/07 13:32:18;;;;;;;4.82;0.90;;;;;;;;;;4904765;28;20036;-66
2021/07/07 13:35:09;;;;;;;4.60;0.90;;;;;;;;;;4905010;28;21111;-67
2021/07/07 13:37:42;;;;;;;2.58;1.08;;;;;;;;;;4881150;28;20184;-66
2021/07/07 13:40:14;;;;;;;2.67;1.00;;;;;;;;;;4891371;28;20404;-66
2021/07/07 13:42:42;;;;;;;3.22;1.20;;;;;;;;;;4888110;28;20975;-66
2021/07/07 13:45:09;;;;;;;3.67;1.02;;;;;;;;;;4891441;28;20102;-66
2021/07/07 13:47:37;;;;;;;2.55;0.95;;;;;;;;;;4890480;28;20062;-65
2021/07/07 13:50:04;;;;;;;4.25;0.88;;;;;;;;;;4905534;28;20723;-64
2021/07/07 13:52:29;;;;;;;4.53;1.10;;;;;;;;;;4890179;28;20063;-64
2021/07/07 13:54:55;;;;;;;4.63;1.48;;;;;;;;;;4876136;28;20982;-64
2021/07/07 13:57:20;;;;;;;5.78;1.40;;;;;;;;;;4890685;28;20420;-64
2021/07/07 13:59:48;;;;;;;2.58;1.48;;;;;;;;;;4893462;28;20107;-63
2021/07/07 14:02:16;;;;;;;3.67;1.95;;;;;;;;;;4889531;28;20870;-62
2021/07/07 14:04:44;;;;;;;17.15;3.83;;;;;;;;;;4893790;28;20060;-62
2021/07/07 14:07:10;;;;;;;10.70;3.60;;;;;;;;;;4887090;28;20041;-60
2021/07/07 14:09:36;;;;;;;6.32;3.70;;;;;;;;;;4903859;28;20604;-61
2021/07/07 14:12:04;;;;;;;8.52;3.38;;;;;;;;;;4891428;28;20691;-60
2021/07/07 14:14:34;;;;;;;8.18;3.80;;;;;;;;;;4885137;28;20044;-60
2021/07/07 14:17:03;;;;;;;7.18;3.67;;;;;;;;;;4892968;28;20039;-60
2021/07/07 14:19:31;;;;;;;6.63;4.05;;;;;;;;;;4905146;28;20056;-60
2021/07/07 14:21:57;;;;;;;6.53;4.03;;;;;;;;;;4891111;28;20067;-59
2021/07/07 14:24:25;;;;;;;9.07;3.67;;;;;;;;;;4891199;28;20646;-58
2021/07/07 14:26:53;;;;;;;9.57;5.25;;;;;;;;;;4891020;28;20044;-59
2021/07/07 14:29:19;;;;;;;12.15;5.10;;;;;;;;;;4889717;28;20123;-59
2021/07/07 14:31:45;;;;;;;8.95;4.95;;;;;;;;;;4891317;28;20629;-59
2021/07/07 14:34:17;;;;;;;12.02;4.97;;;;;;;;;;4891380;28;20047;-59
2021/07/07 14:36:46;;;;;;;8.38;4.05;;;;;;;;;;4897889;28;20147;-60
2021/07/07 14:39:12;;;;;;;7.43;4.00;;;;;;;;;;4895014;28;20087;-60
2021/07/07 14:41:37;;;;;;;6.07;3.22;;;;;;;;;;4892333;28;20719;-60
2021/07/07 14:44:03;;;;;;;6.40;2.80;;;;;;;;;;4891890;28;20036;-60
2021/07/07 14:46:34;;;;;;;9.48;2.15;;;;;;;;;;4889082;28;20365;-60
2021/07/07 14:49:01;;;;;;;3.83;1.52;;;;;;;;;;4889257;28;20602;-60
2021/07/07 14:51:31;;;;;;;6.68;2.40;;;;;;;;;;4891380;28;20038;-60
2021/07/07 14:54:01;;;;;;;5.47;1.63;;;;;;;;;;4889163;28;20025;-60
2021/07/07 14:56:27;;;;;;;4.32;1.52;;;;;;;;;;4887435;28;20036;-60
2021/07/07 14:58:52;;;;;;;9.27;1.85;;;;;;;;;;4890888;28;20083;-58